McAllen, TX

3:14 PM CST on January 29, 2015 (GMT -0600)
Whitewing | Change Station
CLOSE
Current Station
Personal Weather Station
Location: McAllen, TX
Elevation: 138 ft
Nearby Weather Stations

Elev 138 ft 26.23 °N, 98.24 °W | Updated 5 seconds ago

Scattered Clouds
Scattered Clouds
79.1 °F
Feels Like 81 °F
N
2.0
Wind Variable Wind from East
Gusts 7.0 mph

Today
High -- | Low -- °F
--% Chance of Precip.
Yesterday
High -- | Low -- °F
Precip. -- in
7:18 AM 6:13 PM
Waxing Gibbous, 77% visible
Pressure 30.13 in
Visibility 10.0 miles
Clouds Scattered Clouds 4400 ft
Heat Index 81 °F
Dew Point 62 °F
Humidity 57%
Rainfall 0.00 in
Snow Depth Not available.
UV 3 out of 12
Pollen 8.10 out of 12
Air Quality Not available.
Flu Activity Not available.
METAR KMFE 292053Z 15013KT 10SM SCT044 26/15 A3013 RMK AO2 SLP201 T02610150 56021

More Conditions Fewer Conditions

Pressure 30.13 in
Visibility 10.0 miles
Clouds Scattered Clouds 4400 ft
Heat Index 81 °F
Dew Point 62 °F
Humidity 57%
Rainfall 0.00 in
Snow Depth Not available.
UV 3 out of 12
Pollen 8.10 out of 12
Air Quality Not available.
Flu Activity Not available.
METAR KMFE 292053Z 15013KT 10SM SCT044 26/15 A3013 RMK AO2 SLP201 T02610150 56021

More Conditions Fewer Conditions

10-Day Weather Forecast

Almanac

Astronomy

Jan. 29, 2015 Rise Set
Actual Time
Civil Twilight
Nautical Twilight
Astronomical Twilight
Moon
Length of Visible Light
Length of Day
Tomorrow will be .
, % of the Moon is Illuminated

Today's Extremes

State Highs State Lows

Community

WunderPhotos

Upload Photos

1,791,608 photos uploaded!

WunderBlogs® & News

Nearby

Air Quality

  Air Quality AQ Index Pollutant
Not available.

Snow Depth

Station Depth Elevation

Earthquake Activity

City Distance Mag. Time & Date
Minimum magnitude displayed is 2.5.

Coastal Water Temperatures

Place Temperature

Nearby Weather Stations